Time;durP1;ratioP1;P1;durP2;ratioP2;P2;SDS_P1;SDS_P2;PMS_P1;PMS_P2;Temp;Humidity;BMP_temperature;BMP_pressure;BME280_temperature;BME280_humidity;BME280_pressure;Samples;Min_cycle;Max_cycle;Signal;HPM_P1;HPM_P2
2022/09/30 00:01:40;;;;;;;7.70;6.90;;;;;;;15.92;100.00;99002.89;1790195;78;23100;-59
2022/09/30 00:04:09;;;;;;;6.12;5.62;;;;;;;16.46;100.00;98988.16;1771217;80;21560;-59
2022/09/30 00:06:37;;;;;;;6.83;6.12;;;;;;;16.54;100.00;98989.27;1761726;80;22043;-59
2022/09/30 00:09:04;;;;;;;6.30;5.78;;;;;;;16.60;100.00;98992.42;1769056;80;21547;-60
2022/09/30 00:11:33;;;;;;;6.53;5.93;;;;;;;16.65;100.00;98986.25;1771939;80;21541;-59
2022/09/30 00:14:00;;;;;;;5.95;5.42;;;;;;;16.68;100.00;98986.02;1773708;80;21557;-59
2022/09/30 00:16:31;;;;;;;8.83;5.70;;;;;;;16.69;100.00;98985.91;1760258;80;21557;-59
2022/09/30 00:18:59;;;;;;;6.70;6.00;;;;;;;16.73;100.00;98985.18;1759896;80;21553;-59
2022/09/30 00:21:32;;;;;;;6.67;5.53;;;;;;;16.78;100.00;98984.80;1757760;80;21049;-59
2022/09/30 00:23:55;;;;;;;7.12;5.17;;;;;;;16.81;100.00;98990.72;1764706;80;21592;-59
2022/09/30 00:26:23;;;;;;;6.37;5.37;;;;;;;16.86;100.00;98990.41;1763524;80;21601;-59
2022/09/30 00:28:51;;;;;;;5.97;5.37;;;;;;;16.88;100.00;98989.80;1753513;80;21554;-59
2022/09/30 00:31:19;;;;;;;6.10;5.50;;;;;;;16.92;100.00;98996.55;1760086;80;21878;-59
2022/09/30 00:34:06;;;;;;;6.70;5.80;;;;;;;16.90;100.00;99000.64;1763772;80;21439;-59
2022/09/30 00:36:44;;;;;;;7.33;6.05;;;;;;;16.88;100.00;98999.92;1765242;80;21426;-58
2022/09/30 00:39:17;;;;;;;6.08;5.58;;;;;;;16.89;100.00;99000.77;1756996;80;21502;-59
2022/09/30 00:41:47;;;;;;;7.90;5.85;;;;;;;16.88;100.00;99008.38;1765366;80;21482;-59
2022/09/30 00:44:51;;;;;;;6.03;4.97;;;;;;;16.91;100.00;99006.79;1766071;80;22194;-58
2022/09/30 00:47:56;;;;;;;4.87;4.45;;;;;;;16.91;100.00;99008.13;1764681;80;21698;-58
2022/09/30 00:50:45;;;;;;;5.10;4.45;;;;;;;16.88;100.00;99017.19;1755991;80;21517;-58
2022/09/30 00:53:19;;;;;;;7.47;4.53;;;;;;;16.90;100.00;99025.03;1762345;80;21542;-57
2022/09/30 00:56:01;;;;;;;5.70;4.42;;;;;;;16.93;100.00;99026.97;1764947;80;21451;-58
2022/09/30 00:58:45;;;;;;;4.35;3.98;;;;;;;16.97;100.00;99021.39;1771079;80;21852;-57
2022/09/30 01:01:13;;;;;;;5.90;4.15;;;;;;;16.96;100.00;99022.38;1746565;80;21582;-59
2022/09/30 01:03:50;;;;;;;4.58;4.17;;;;;;;16.97;100.00;99018.28;1757627;80;20939;-58
2022/09/30 01:06:18;;;;;;;5.37;3.87;;;;;;;16.98;100.00;99015.97;1754828;80;21448;-58
2022/09/30 01:08:46;;;;;;;8.03;4.22;;;;;;;17.00;100.00;99019.34;1746889;80;21447;-59
2022/09/30 01:11:14;;;;;;;4.53;3.98;;;;;;;17.00;100.00;99016.69;1751013;80;21907;-58
2022/09/30 01:13:40;;;;;;;4.13;3.63;;;;;;;17.05;100.00;99015.02;1750499;80;21427;-58
2022/09/30 01:16:19;;;;;;;3.92;3.52;;;;;;;17.08;100.00;99015.61;1753821;79;21480;-58
2022/09/30 01:19:06;;;;;;;5.45;3.70;;;;;;;17.12;100.00;99016.19;1736232;80;21042;-59
2022/09/30 01:21:54;;;;;;;4.55;3.80;;;;;;;17.16;100.00;99027.41;1744949;80;21073;-59
2022/09/30 01:24:42;;;;;;;4.55;3.65;;;;;;;17.19;100.00;99029.34;1755866;80;21868;-57
2022/09/30 01:28:05;;;;;;;5.17;3.77;;;;;;;17.22;100.00;99038.90;1748764;80;21543;-58
2022/09/30 01:30:57;;;;;;;4.85;3.58;;;;;;;17.21;100.00;99039.36;1714651;81;21626;-58
2022/09/30 01:33:48;;;;;;;4.83;4.12;;;;;;;17.22;100.00;99041.06;1695451;82;21637;-58
2022/09/30 01:36:47;;;;;;;7.65;4.10;;;;;;;17.24;100.00;99028.99;1694631;82;21566;-58
2022/09/30 01:39:42;;;;;;;5.47;4.22;;;;;;;17.22;100.00;99027.78;1750130;80;21462;-61
2022/09/30 01:42:23;;;;;;;6.40;3.65;;;;;;;17.18;100.00;99034.77;1748011;80;21515;-58
2022/09/30 01:45:10;;;;;;;6.00;3.77;;;;;;;17.10;100.00;99032.27;1756991;80;21053;-59
2022/09/30 01:47:47;;;;;;;;;;;;;;;17.09;100.00;99031.89;1757938;80;21447;-58
2022/09/30 01:50:25;;;;;;;3.65;3.33;;;;;;;17.02;100.00;99037.33;1747167;80;20464;-59
2022/09/30 01:53:13;;;;;;;6.35;3.40;;;;;;;16.95;100.00;99035.28;1754314;80;21819;-58
2022/09/30 01:55:54;;;;;;;3.42;3.08;;;;;;;16.91;100.00;99034.67;1739547;80;21460;-58
2022/09/30 01:58:55;;;;;;;3.20;3.00;;;;;;;16.86;100.00;99028.90;1741251;80;21650;-58
2022/09/30 02:01:33;;;;;;;8.13;3.80;;;;;;;16.80;100.00;99028.00;1746112;80;21546;-59
2022/09/30 02:04:11;;;;;;;3.90;3.50;;;;;;;16.76;100.00;99032.70;1756071;80;21452;-58
2022/09/30 02:06:41;;;;;;;3.42;2.77;;;;;;;16.70;100.00;99027.88;1756065;80;21768;-58
2022/09/30 02:09:13;;;;;;;3.15;2.95;;;;;;;16.68;100.00;99032.47;1751474;80;21581;-58
2022/09/30 02:11:41;;;;;;;3.42;3.12;;;;;;;16.68;100.00;99027.99;1741351;80;21468;-58
2022/09/30 02:14:28;;;;;;;3.55;3.08;;;;;;;16.65;100.00;99024.27;1760808;80;21097;-58
2022/09/30 02:17:01;;;;;;;3.73;3.07;;;;;;;16.64;100.00;99029.69;1754399;80;21561;-58
2022/09/30 02:19:41;;;;;;;4.20;3.50;;;;;;;16.61;100.00;99025.94;1753811;80;21782;-58
2022/09/30 02:22:43;;;;;;;3.12;2.83;;;;;;;16.61;100.00;99029.92;1747693;80;21640;-58
2022/09/30 02:25:09;;;;;;;3.20;2.90;;;;;;;16.60;100.00;99029.08;1723355;80;21591;-59
2022/09/30 02:27:42;;;;;;;4.55;3.90;;;;;;;16.55;100.00;99037.88;1741333;80;21659;-58
2022/09/30 02:30:10;;;;;;;5.62;3.37;;;;;;;16.55;100.00;99034.73;1753727;80;21527;-58
2022/09/30 02:32:48;;;;;;;3.95;3.20;;;;;;;16.54;100.00;99034.88;1747641;80;21796;-58
2022/09/30 02:35:26;;;;;;;3.77;3.37;;;;;;;16.54;100.00;99032.22;1753088;80;20947;-60
2022/09/30 02:38:13;;;;;;;3.52;3.25;;;;;;;16.50;100.00;99028.95;1751412;80;21042;-59
2022/09/30 02:40:53;;;;;;;4.03;3.45;;;;;;;16.48;100.00;99043.28;1744940;80;21560;-57
2022/09/30 02:43:20;;;;;;;4.08;3.27;;;;;;;16.45;100.00;99039.55;1723537;80;21415;-58
2022/09/30 02:46:05;;;;;;;3.40;3.10;;;;;;;16.42;100.00;99038.45;1748782;80;21840;-58
2022/09/30 02:49:09;;;;;;;4.67;3.55;;;;;;;16.40;100.00;99039.05;1736478;80;21045;-59
2022/09/30 02:52:04;;;;;;;5.65;3.37;;;;;;;16.38;100.00;99037.00;1748690;80;21542;-58
2022/09/30 02:55:06;;;;;;;3.25;2.80;;;;;;;16.35;100.00;99039.42;1742399;80;21450;-59
2022/09/30 02:58:08;;;;;;;3.47;2.87;;;;;;;16.33;100.00;99043.97;1747774;80;21577;-59
2022/09/30 03:00:34;;;;;;;5.42;3.58;;;;;;;16.32;100.00;99051.09;1745900;80;21918;-58
2022/09/30 03:03:16;;;;;;;3.80;3.50;;;;;;;16.34;100.00;99054.47;1758131;80;21917;-58
2022/09/30 03:05:43;;;;;;;3.90;3.60;;;;;;;16.37;100.00;99054.73;1752518;79;21546;-58
2022/09/30 03:08:11;;;;;;;4.12;3.45;;;;;;;16.44;100.00;99061.73;1759898;80;21538;-59
2022/09/30 03:10:38;;;;;;;3.95;3.55;;;;;;;16.48;100.00;99062.72;1754456;80;21040;-59
2022/09/30 03:13:58;;;;;;;6.37;3.98;;;;;;;16.55;100.00;99065.73;1729154;80;21804;-59
2022/09/30 03:16:33;;;;;;;6.58;4.10;;;;;;;16.63;100.00;99070.45;1692743;82;21562;-59
2022/09/30 03:19:08;;;;;;;4.37;3.98;;;;;;;16.72;100.00;99080.36;1690791;83;21463;-60
2022/09/30 03:22:05;;;;;;;7.22;5.12;;;;;;;16.79;100.00;99074.95;1716105;80;21514;-59
2022/09/30 03:24:58;;;;;;;10.13;4.92;;;;;;;16.86;100.00;99079.34;1718784;80;21546;-59
2022/09/30 03:27:49;;;;;;;6.08;5.45;;;;;;;16.91;100.00;99074.50;1749421;80;22298;-59
2022/09/30 03:30:19;;;;;;;8.48;5.30;;;;;;;16.97;100.00;99074.50;1762447;80;21561;-58
2022/09/30 03:33:04;;;;;;;10.00;5.90;;;;;;;16.99;100.00;99073.44;1753150;80;21549;-59
2022/09/30 03:36:06;;;;;;;8.23;6.08;;;;;;;17.05;100.00;99078.26;1760283;80;21529;-59
2022/09/30 03:38:46;;;;;;;8.33;6.17;;;;;;;17.08;100.00;99086.00;1761984;80;21632;-59
2022/09/30 03:41:39;;;;;;;11.80;6.22;;;;;;;17.07;100.00;99096.73;1746872;80;21809;-59
2022/09/30 03:44:29;;;;;;;9.18;6.08;;;;;;;17.09;100.00;99094.80;1758717;80;21538;-59
2022/09/30 03:47:05;;;;;;;9.50;6.67;;;;;;;17.10;100.00;99105.31;1753586;80;20982;-59
2022/09/30 03:49:42;;;;;;;8.43;6.12;;;;;;;17.11;100.00;99108.80;1763782;80;21530;-59
2022/09/30 03:52:10;;;;;;;8.30;6.05;;;;;;;17.14;100.00;99117.87;1754481;80;21534;-59
2022/09/30 03:54:55;;;;;;;8.73;6.62;;;;;;;17.19;100.00;99118.82;1745982;80;21731;-58
2022/09/30 03:57:22;;;;;;;10.15;6.55;;;;;;;17.37;100.00;99123.19;1747687;80;21450;-59
2022/09/30 03:59:49;;;;;;;12.00;6.08;;;;;;;17.39;100.00;99126.06;1702689;83;21024;-60
2022/09/30 04:02:15;;;;;;;7.73;5.70;;;;;;;17.38;100.00;99133.66;1680851;83;21633;-59
2022/09/30 04:04:42;;;;;;;10.18;6.12;;;;;;;17.38;100.00;99138.98;1674212;83;21572;-60
2022/09/30 04:07:09;;;;;;;11.38;6.10;;;;;;;17.38;100.00;99152.27;1676170;83;21760;-59
2022/09/30 04:09:37;;;;;;;15.78;7.17;;;;;;;17.39;100.00;99149.14;1661189;84;21025;-59
2022/09/30 04:12:06;;;;;;;10.53;6.25;;;;;;;17.37;100.00;99149.27;1682026;83;21503;-59
2022/09/30 04:14:33;;;;;;;9.53;6.08;;;;;;;17.38;100.00;99153.59;1690441;83;21484;-60
2022/09/30 04:17:00;;;;;;;16.05;6.65;;;;;;;17.41;100.00;99142.73;1685212;84;21428;-60
2022/09/30 04:19:27;;;;;;;12.85;6.33;;;;;;;17.43;100.00;99146.11;1677890;84;21878;-59
2022/09/30 04:21:54;;;;;;;17.77;7.42;;;;;;;17.39;100.00;99161.94;1674195;83;21481;-59
2022/09/30 04:24:21;;;;;;;18.35;6.45;;;;;;;17.37;100.00;99159.05;1728193;80;21558;-60
2022/09/30 04:26:49;;;;;;;9.38;6.87;;;;;;;17.35;100.00;99164.48;1696525;82;21150;-60
2022/09/30 04:29:15;;;;;;;15.90;7.20;;;;;;;17.36;100.00;99154.20;1694459;82;21509;-60
2022/09/30 04:31:42;;;;;;;10.55;7.03;;;;;;;17.39;100.00;99149.14;1730046;80;21895;-60
2022/09/30 04:34:10;;;;;;;12.03;6.85;;;;;;;17.40;100.00;99153.48;1729312;80;21560;-59
2022/09/30 04:36:37;;;;;;;15.00;7.10;;;;;;;17.46;100.00;99167.14;1732880;80;21054;-60
2022/09/30 04:39:04;;;;;;;11.07;7.03;;;;;;;17.51;100.00;99169.42;1728987;80;21046;-59
2022/09/30 04:41:32;;;;;;;16.95;7.30;;;;;;;17.53;100.00;99167.98;1727568;80;21423;-60
2022/09/30 04:44:04;;;;;;;11.53;6.92;;;;;;;17.54;100.00;99165.20;1725140;80;21824;-59
2022/09/30 04:46:28;;;;;;;7.30;6.33;;;;;;;17.57;100.00;99160.11;1684930;82;21597;-59
2022/09/30 04:48:55;;;;;;;12.40;7.03;;;;;;;17.58;100.00;99175.95;1696217;82;21568;-59
2022/09/30 04:51:21;;;;;;;12.20;7.42;;;;;;;17.60;100.00;99175.83;1687400;83;21617;-60
2022/09/30 04:53:48;;;;;;;17.98;7.33;;;;;;;17.64;100.00;99185.25;1727133;80;21447;-60
2022/09/30 04:56:17;;;;;;;11.40;7.00;;;;;;;17.67;100.00;99190.33;1721364;80;21519;-60
2022/09/30 04:58:44;;;;;;;7.72;7.10;;;;;;;17.70;100.00;99188.25;1732100;80;21010;-60
2022/09/30 05:01:13;;;;;;;10.48;7.33;;;;;;;17.77;100.00;99185.95;1729099;80;21546;-59
2022/09/30 05:03:42;;;;;;;13.10;7.90;;;;;;;17.82;100.00;99188.23;1752366;80;21482;-59
2022/09/30 05:06:08;;;;;;;10.75;7.25;;;;;;;17.82;100.00;99193.09;1746885;80;21584;-59
2022/09/30 05:08:37;;;;;;;8.90;7.92;;;;;;;17.84;100.00;99190.31;1754056;80;21509;-60
2022/09/30 05:11:11;;;;;;;10.40;8.05;;;;;;;17.81;100.00;99186.07;1755044;80;21498;-60
2022/09/30 05:13:37;;;;;;;8.53;7.75;;;;;;;17.83;100.00;99189.94;1752554;80;21435;-60
2022/09/30 05:16:06;;;;;;;8.28;7.47;;;;;;;17.85;100.00;99188.03;1762852;80;21490;-60
2022/09/30 05:18:35;;;;;;;8.43;7.62;;;;;;;17.92;100.00;99187.91;1754080;80;21549;-59
2022/09/30 05:21:02;;;;;;;21.57;7.85;;;;;;;17.96;100.00;99185.84;1752326;80;21806;-59
2022/09/30 05:23:30;;;;;;;8.18;7.40;;;;;;;18.02;100.00;99193.33;1753067;80;20990;-59
2022/09/30 05:25:58;;;;;;;13.35;8.25;;;;;;;18.07;100.00;99198.63;1754563;80;21601;-59
2022/09/30 05:28:25;;;;;;;13.62;8.25;;;;;;;18.07;100.00;99197.80;1756580;80;21582;-63
2022/09/30 05:31:04;;;;;;;9.28;8.48;;;;;;;18.05;100.00;99197.91;1760479;80;21465;-60
2022/09/30 05:33:32;;;;;;;7.95;7.25;;;;;;;18.04;100.00;99203.35;1751708;80;21742;-60
2022/09/30 05:36:03;;;;;;;8.67;7.83;;;;;;;18.00;100.00;99208.07;1752690;80;21565;-59
2022/09/30 05:38:31;;;;;;;8.88;7.58;;;;;;;17.99;100.00;99214.84;1750848;80;21426;-59
2022/09/30 05:40:58;;;;;;;14.15;7.85;;;;;;;17.97;100.00;99216.31;1744786;80;21511;-60
2022/09/30 05:43:24;;;;;;;10.20;7.72;;;;;;;17.97;100.00;99216.78;1750670;80;21582;-60
2022/09/30 05:45:56;;;;;;;9.13;8.28;;;;;;;17.98;100.00;99225.13;1754738;80;21877;-60
2022/09/30 05:48:24;;;;;;;8.28;7.55;;;;;;;17.95;100.00;99222.25;1762109;80;21529;-60
2022/09/30 05:50:56;;;;;;;9.20;8.50;;;;;;;18.01;100.00;99226.23;1727417;82;21656;-60
2022/09/30 05:53:23;;;;;;;10.25;8.33;;;;;;;18.06;100.00;99223.56;1749262;80;21542;-59
2022/09/30 05:55:50;;;;;;;9.73;8.83;;;;;;;18.08;100.00;99223.41;1748173;80;22446;-60
2022/09/30 05:58:17;;;;;;;9.53;8.58;;;;;;;18.07;100.00;99231.05;1756178;80;21839;-60
2022/09/30 06:00:45;;;;;;;8.50;7.80;;;;;;;18.03;100.00;99230.94;1759394;80;21483;-60
2022/09/30 06:03:14;;;;;;;9.75;8.10;;;;;;;18.05;100.00;99233.83;1745360;80;21038;-60
2022/09/30 06:05:43;;;;;;;9.13;8.38;;;;;;;18.11;100.00;99236.97;1758226;80;21584;-60
2022/09/30 06:08:10;;;;;;;8.75;7.95;;;;;;;18.12;100.00;99240.84;1750027;80;21508;-60
2022/09/30 06:10:58;;;;;;;9.93;9.03;;;;;;;18.09;100.00;99244.58;1752498;80;21827;-59
2022/09/30 06:13:26;;;;;;;10.20;8.58;;;;;;;18.11;100.00;99249.78;1654139;85;20996;-58
2022/09/30 06:15:57;;;;;;;10.85;9.75;;;;;;;18.16;100.00;99259.58;1652304;84;21486;-58
2022/09/30 06:18:26;;;;;;;10.55;9.50;;;;;;;18.20;100.00;99251.70;1653710;84;21434;-59
2022/09/30 06:20:58;;;;;;;10.50;8.83;;;;;;;18.24;100.00;99250.97;1652338;84;21574;-59
2022/09/30 06:23:25;;;;;;;11.30;9.58;;;;;;;18.32;100.00;99251.19;1649905;85;21892;-60
2022/09/30 06:25:53;;;;;;;10.03;9.13;;;;;;;18.36;100.00;99245.13;1654955;85;21602;-60
2022/09/30 06:28:19;;;;;;;10.18;9.18;;;;;;;18.29;100.00;99250.95;1636149;86;21586;-60
2022/09/30 06:30:46;;;;;;;9.68;8.78;;;;;;;18.30;100.00;99253.13;1654161;84;21598;-60
2022/09/30 06:33:13;;;;;;;9.58;8.78;;;;;;;18.40;100.00;99253.22;1595671;87;21639;-60
2022/09/30 06:35:41;;;;;;;9.57;8.77;;;;;;;18.52;100.00;99245.58;1625148;86;22113;-60
2022/09/30 06:38:09;;;;;;;11.57;9.85;;;;;;;18.58;100.00;99249.05;1639425;84;23036;-60
2022/09/30 06:40:36;;;;;;;11.78;10.58;;;;;;;18.63;100.00;99259.34;1709536;82;21606;-58
2022/09/30 06:43:03;;;;;;;11.18;9.40;;;;;;;18.63;100.00;99250.02;1709951;82;21585;-58
2022/09/30 06:45:31;;;;;;;11.65;10.45;;;;;;;18.67;100.00;99254.95;1680182;84;21513;-59
2022/09/30 06:47:58;;;;;;;;;;;;;;;18.66;100.00;99250.59;1675404;83;21680;-59
2022/09/30 06:50:25;;;;;;;10.80;9.80;;;;;;;18.60;100.00;99260.42;1669355;83;20422;-59
2022/09/30 06:52:59;;;;;;;11.35;10.35;;;;;;;18.64;100.00;99254.36;1679842;83;21010;-59
2022/09/30 06:55:27;;;;;;;11.05;9.95;;;;;;;18.71;100.00;99246.73;1708082;82;21475;-59
2022/09/30 06:57:54;;;;;;;11.10;10.03;;;;;;;18.72;100.00;99249.23;1708407;82;21549;-59
2022/09/30 07:00:22;;;;;;;12.37;11.08;;;;;;;18.84;100.00;99256.25;1712260;82;21734;-59
2022/09/30 07:02:49;;;;;;;;;;;;;;;18.92;100.00;99258.27;1712189;82;21087;-60
2022/09/30 07:05:16;;;;;;;10.38;9.30;;;;;;;18.93;100.00;99261.31;1711345;82;20574;-59
2022/09/30 07:07:43;;;;;;;14.90;11.13;;;;;;;18.96;100.00;99257.53;1714781;82;21490;-60
2022/09/30 07:10:11;;;;;;;12.18;10.93;;;;;;;19.06;100.00;99260.63;1710255;82;21569;-60
2022/09/30 07:12:38;;;;;;;11.88;10.68;;;;;;;19.15;100.00;99265.66;1707548;82;21775;-62
2022/09/30 07:15:06;;;;;;;13.15;11.33;;;;;;;19.26;100.00;99268.25;1703819;82;22019;-60
2022/09/30 07:17:33;;;;;;;13.08;10.78;;;;;;;19.38;100.00;99274.85;1704822;82;21518;-60
2022/09/30 07:20:01;;;;;;;11.83;10.72;;;;;;;19.43;100.00;99271.31;1704927;82;21550;-61
2022/09/30 07:22:30;;;;;;;12.05;10.85;;;;;;;19.51;100.00;99277.31;1701443;82;21419;-61
2022/09/30 07:25:02;;;;;;;11.68;10.65;;;;;;;19.60;100.00;99276.03;1704816;82;21804;-61
2022/09/30 07:27:32;;;;;;;12.88;10.55;;;;;;;19.71;100.00;99279.61;1704649;82;21593;-61
2022/09/30 07:29:59;;;;;;;12.40;10.58;;;;;;;19.86;100.00;99277.47;1702880;82;22234;-61
2022/09/30 07:32:26;;;;;;;12.27;10.97;;;;;;;19.98;100.00;99273.21;1702219;83;20974;-62
2022/09/30 07:34:52;;;;;;;12.07;10.97;;;;;;;20.00;100.00;99267.75;1704595;83;21483;-61
2022/09/30 07:37:20;;;;;;;12.50;11.30;;;;;;;19.88;100.00;99277.68;1703978;82;21829;-62
2022/09/30 07:39:47;;;;;;;12.37;11.18;;;;;;;19.84;100.00;99279.77;1703873;82;20965;-61
2022/09/30 07:42:15;;;;;;;12.50;11.12;;;;;;;19.83;100.00;99280.77;1707352;83;21442;-62
2022/09/30 07:44:43;;;;;;;13.10;11.63;;;;;;;19.84;100.00;99290.44;1703593;82;21609;-63
2022/09/30 07:47:10;;;;;;;13.83;11.40;;;;;;;19.91;100.00;99289.89;1704720;82;21123;-61
2022/09/30 07:49:38;;;;;;;13.00;11.03;;;;;;;20.00;100.00;99287.76;1703407;82;22212;-62
2022/09/30 07:52:05;;;;;;;12.35;11.15;;;;;;;20.07;100.00;99292.08;1702939;82;21503;-60
2022/09/30 07:54:32;;;;;;;13.08;11.03;;;;;;;20.14;100.00;99296.74;1704462;82;21523;-60
2022/09/30 07:57:00;;;;;;;12.47;10.75;;;;;;;20.22;100.00;99302.23;1702214;82;21548;-60
2022/09/30 07:59:31;;;;;;;;;;;;;;;20.33;100.00;99297.78;1707132;82;20970;-60
2022/09/30 08:01:58;;;;;;;11.35;10.15;;;;;;;20.38;100.00;99292.86;1704366;82;20897;-61
2022/09/30 08:04:25;;;;;;;11.80;10.65;;;;;;;20.42;100.00;99304.98;1703831;82;21479;-61
2022/09/30 08:06:58;;;;;;;11.53;10.48;;;;;;;20.51;100.00;99296.15;1701022;82;21514;-61
2022/09/30 08:09:26;;;;;;;13.60;10.90;;;;;;;20.58;100.00;99297.76;1702883;83;21017;-62
2022/09/30 08:11:54;;;;;;;14.55;11.40;;;;;;;20.67;100.00;99298.30;1676411;84;20989;-61
2022/09/30 08:14:26;;;;;;;12.35;11.10;;;;;;;20.68;100.00;99293.33;1704225;82;21891;-61
2022/09/30 08:16:55;;;;;;;12.78;11.45;;;;;;;20.67;100.00;99288.11;1708678;82;21021;-61
2022/09/30 08:19:23;;;;;;;12.47;11.18;;;;;;;20.61;100.00;99286.34;1711478;82;21470;-61
2022/09/30 08:21:52;;;;;;;13.28;10.32;;;;;;;20.50;100.00;99266.91;1716013;82;20962;-61
2022/09/30 08:24:19;;;;;;;12.07;10.95;;;;;;;20.69;100.00;99295.50;1709832;82;21479;-62
2022/09/30 08:26:46;;;;;;;12.00;10.90;;;;;;;20.65;100.00;99302.10;1681560;83;21820;-62
2022/09/30 08:29:13;;;;;;;12.20;11.10;;;;;;;20.64;100.00;99307.08;1710842;82;21680;-61
2022/09/30 08:31:40;;;;;;;12.63;11.33;;;;;;;20.64;100.00;99309.25;1712304;82;21496;-61
2022/09/30 08:34:08;;;;;;;12.50;11.30;;;;;;;20.71;100.00;99312.22;1710744;81;21514;-62
2022/09/30 08:36:35;;;;;;;13.05;11.35;;;;;;;20.84;100.00;99309.30;1679963;83;21451;-61
2022/09/30 08:39:02;;;;;;;12.90;10.65;;;;;;;20.97;100.00;99316.03;1648766;85;21793;-61
2022/09/30 08:41:49;;;;;;;13.77;10.97;;;;;;;21.09;100.00;99316.73;1677659;83;21056;-65
2022/09/30 08:44:40;;;;;;;12.82;11.00;;;;;;;21.23;100.00;99310.13;1708947;82;21550;-62
2022/09/30 08:48:03;;;;;;;12.55;11.35;;;;;;;21.32;100.00;99313.30;1709904;82;21479;-60
2022/09/30 08:50:38;;;;;;;12.90;11.57;;;;;;;21.41;100.00;99306.73;1712071;82;21541;-61
2022/09/30 08:53:13;;;;;;;12.07;10.88;;;;;;;21.41;100.00;99306.73;1674113;84;22016;-60
2022/09/30 08:55:44;;;;;;;13.43;12.18;;;;;;;21.50;100.00;99315.27;1651962;85;21549;-60
2022/09/30 08:58:48;;;;;;;12.98;11.57;;;;;;;21.52;100.00;99306.09;1648455;85;21626;-60
2022/09/30 09:01:33;;;;;;;11.35;10.25;;;;;;;21.57;100.00;99311.03;1622224;86;21855;-62
2022/09/30 09:04:02;;;;;;;12.15;10.88;;;;;;;21.57;100.00;99311.03;1621918;86;21127;-60
2022/09/30 09:06:43;;;;;;;12.85;11.30;;;;;;;21.65;100.00;99312.48;1625528;86;21541;-61
2022/09/30 09:09:37;;;;;;;14.33;10.68;;;;;;;21.72;100.00;99310.92;1624946;86;21660;-60
2022/09/30 09:12:21;;;;;;;12.90;10.40;;;;;;;21.78;100.00;99314.34;1625262;85;21050;-60
2022/09/30 09:15:02;;;;;;;10.72;9.48;;;;;;;21.81;100.00;99316.38;1624577;86;21707;-61
2022/09/30 09:17:51;;;;;;;10.13;9.20;;;;;;;21.83;100.00;99322.42;1608809;86;21537;-61
2022/09/30 09:20:20;;;;;;;12.80;10.45;;;;;;;21.91;100.00;99321.22;1615923;85;22172;-60
2022/09/30 09:22:49;;;;;;;11.50;9.60;;;;;;;21.92;100.00;99313.52;1623182;86;21150;-60
2022/09/30 09:25:18;;;;;;;12.20;10.80;;;;;;;21.99;100.00;99310.61;1603395;84;21484;-62
2022/09/30 09:27:58;;;;;;;12.20;10.82;;;;;;;22.06;100.00;99319.75;1680305;83;21459;-64
2022/09/30 09:30:34;;;;;;;11.75;10.60;;;;;;;22.02;100.00;99313.00;1675610;83;21621;-63
2022/09/30 09:33:04;;;;;;;11.03;9.93;;;;;;;22.14;100.00;99314.98;1669916;83;21866;-63
2022/09/30 09:36:04;;;;;;;11.60;10.50;;;;;;;22.14;100.00;99314.98;1667548;83;21585;-60
2022/09/30 09:38:53;;;;;;;12.37;10.40;;;;;;;22.29;100.00;99307.34;1680440;84;21462;-60
2022/09/30 09:41:51;;;;;;;13.15;10.30;;;;;;;22.29;100.00;99307.34;1671510;83;21546;-60
2022/09/30 09:44:29;;;;;;;12.70;9.73;;;;;;;22.36;100.00;99305.76;1671655;83;21490;-60
2022/09/30 09:47:06;;;;;;;12.55;10.10;;;;;;;22.50;100.00;99305.23;1680951;84;21514;-61
2022/09/30 09:49:37;;;;;;;11.18;9.33;;;;;;;22.70;100.00;99306.47;1681056;84;21082;-62
2022/09/30 09:52:44;;;;;;;11.70;9.05;;;;;;;22.70;100.00;99306.47;1672832;84;21522;-63
2022/09/30 09:55:13;;;;;;;10.68;7.97;;;;;;;22.78;100.00;99301.69;1674712;83;21099;-66
2022/09/30 09:57:41;;;;;;;9.65;8.75;;;;;;;23.03;100.00;99306.30;1677974;83;21541;-62
2022/09/30 10:03:22;;;;;;;12.40;8.33;;;;;;;23.27;100.00;99304.33;1679389;83;21073;-61
2022/09/30 10:06:07;;;;;;;10.38;9.08;;;;;;;23.27;100.00;99304.33;1676465;83;21573;-62
2022/09/30 10:08:38;;;;;;;11.78;9.60;;;;;;;23.33;100.00;99299.67;1680079;84;21069;-62
2022/09/30 10:11:22;;;;;;;9.40;8.43;;;;;;;23.39;100.00;99292.00;1680067;84;21562;-61
2022/09/30 10:13:50;;;;;;;8.65;7.80;;;;;;;23.50;100.00;99295.77;1650899;84;22038;-62
2022/09/30 10:16:36;;;;;;;9.43;8.55;;;;;;;23.54;100.00;99306.53;1673648;84;21427;-61
2022/09/30 10:19:05;;;;;;;10.40;8.87;;;;;;;23.52;100.00;99304.50;1679441;84;21588;-62
2022/09/30 10:21:33;;;;;;;10.05;9.05;;;;;;;23.48;100.00;99310.68;1677111;84;21128;-62
2022/09/30 10:24:02;;;;;;;11.05;9.68;;;;;;;23.46;100.00;99307.31;1674432;84;21045;-64
2022/09/30 10:26:29;;;;;;;10.50;9.50;;;;;;;23.47;100.00;99313.52;1654655;84;21756;-63
2022/09/30 10:28:59;;;;;;;10.28;9.28;;;;;;;23.47;100.00;99313.52;1675631;84;21565;-62
2022/09/30 10:31:39;;;;;;;11.05;9.48;;;;;;;23.40;100.00;99313.31;1672144;83;21602;-61
2022/09/30 10:34:26;;;;;;;10.18;9.18;;;;;;;23.37;100.00;99310.94;1672474;83;21082;-61
2022/09/30 10:36:52;;;;;;;11.60;9.20;;;;;;;23.41;100.00;99311.47;1675458;83;21482;-60
2022/09/30 10:39:28;;;;;;;10.18;8.00;;;;;;;23.49;100.00;99312.89;1677324;84;22117;-62
2022/09/30 10:42:16;;;;;;;8.65;7.78;;;;;;;23.60;100.00;99311.77;1677664;84;21570;-63
2022/09/30 10:44:53;;;;;;;9.53;8.45;;;;;;;23.66;100.00;99311.16;1679451;83;21499;-63
2022/09/30 10:47:25;;;;;;;8.43;7.55;;;;;;;23.74;100.00;99312.54;1679725;84;21506;-65
2022/09/30 10:50:10;;;;;;;8.68;7.30;;;;;;;23.76;100.00;99317.75;1673624;84;21490;-66
2022/09/30 10:53:00;;;;;;;9.80;7.80;;;;;;;23.86;100.00;99309.11;1680372;84;21053;-63
2022/09/30 10:55:36;;;;;;;8.40;7.60;;;;;;;23.95;100.00;99313.52;1674176;84;21578;-63
2022/09/30 10:58:39;;;;;;;8.15;6.97;;;;;;;24.04;100.00;99311.22;1682131;83;21767;-64
2022/09/30 11:01:35;;;;;;;7.83;7.08;;;;;;;24.08;100.00;99309.06;1666296;84;21642;-65
2022/09/30 11:04:32;;;;;;;8.95;6.33;;;;;;;24.16;100.00;99314.97;1669123;84;21642;-65
2022/09/30 11:07:05;;;;;;;7.92;6.85;;;;;;;24.19;100.00;99320.86;1672316;84;22322;-64
2022/09/30 11:09:52;;;;;;;8.88;6.90;;;;;;;24.20;100.00;99321.19;1666146;85;21448;-65
2022/09/30 11:13:09;;;;;;;8.00;6.97;;;;;;;24.27;100.00;99322.74;1666839;84;21543;-62
2022/09/30 11:16:16;;;;;;;6.67;6.08;;;;;;;24.34;100.00;99325.64;1660262;85;21349;-62
2022/09/30 11:18:48;;;;;;;7.03;6.42;;;;;;;24.44;100.00;99327.67;1663284;84;21479;-62
2022/09/30 11:21:23;;;;;;;7.47;6.80;;;;;;;24.53;100.00;99325.90;1668788;85;21897;-62
2022/09/30 11:23:58;;;;;;;10.35;7.25;;;;;;;24.49;100.00;99322.16;1659141;85;21587;-65
2022/09/30 11:26:36;;;;;;;7.47;6.28;;;;;;;24.47;100.00;99331.39;1666218;84;21073;-62
2022/09/30 11:29:32;;;;;;;7.47;6.50;;;;;;;24.52;100.00;99325.03;1658513;84;21614;-63
2022/09/30 11:32:04;;;;;;;6.80;6.20;;;;;;;24.61;100.00;99330.78;1665426;85;21611;-63
2022/09/30 11:34:49;;;;;;;8.63;6.40;;;;;;;24.62;100.00;99335.64;1656507;85;21864;-63
2022/09/30 11:38:09;;;;;;;6.70;6.10;;;;;;;24.66;100.00;99333.83;1657148;84;21432;-64
2022/09/30 11:40:51;;;;;;;6.50;5.78;;;;;;;24.78;100.00;99341.06;1667957;84;21495;-64
2022/09/30 11:43:35;;;;;;;6.85;6.17;;;;;;;24.91;100.00;99331.70;1670924;84;20998;-64
2022/09/30 11:46:10;;;;;;;7.33;6.37;;;;;;;25.04;100.00;99334.23;1663238;84;21610;-64
2022/09/30 11:49:07;;;;;;;7.00;5.83;;;;;;;25.20;100.00;99331.20;1659026;85;21835;-64
2022/09/30 11:52:13;;;;;;;7.55;5.67;;;;;;;25.27;98.34;99326.05;1664581;85;21642;-63
2022/09/30 11:55:00;;;;;;;6.25;5.67;;;;;;;25.21;97.92;99333.73;1665462;84;22060;-67
2022/09/30 11:57:41;;;;;;;8.35;5.72;;;;;;;25.19;97.35;99329.55;1670220;83;21610;-67
2022/09/30 12:00:16;;;;;;;6.17;5.67;;;;;;;25.21;97.65;99330.21;1667014;84;21546;-65
2022/09/30 12:02:54;;;;;;;6.30;5.70;;;;;;;25.20;96.93;99332.55;1663400;84;21825;-66
2022/09/30 12:05:37;;;;;;;7.45;5.40;;;;;;;25.09;97.57;99331.05;1664477;85;21555;-64